Time;durP1;ratioP1;P1;durP2;ratioP2;P2;SDS_P1;SDS_P2;PMS_P1;PMS_P2;Temp;Humidity;BMP_temperature;BMP_pressure;BME280_temperature;BME280_humidity;BME280_pressure;Samples;Min_cycle;Max_cycle;Signal;HPM_P1;HPM_P2
2022/09/12 00:01:18;;;;;;;72.97;13.07;;;16.60;99.90;;;;;;5043103;28;20411;-83
2022/09/12 00:03:44;;;;;;;73.27;14.77;;;16.60;99.90;;;;;;5044785;28;20385;-83
2022/09/12 00:06:38;;;;;;;72.83;14.20;;;16.50;99.90;;;;;;5026005;28;20934;-83
2022/09/12 00:09:07;;;;;;;73.47;14.80;;;16.50;99.90;;;;;;5043047;28;20771;-83
2022/09/12 00:11:38;;;;;;;74.67;15.07;;;16.50;99.90;;;;;;5045863;28;20408;-83
2022/09/12 00:14:04;;;;;;;71.90;14.60;;;16.50;99.90;;;;;;5045469;28;20404;-83
2022/09/12 00:16:34;;;;;;;73.57;14.50;;;16.50;99.90;;;;;;5045174;28;20403;-83
2022/09/12 00:19:00;;;;;;;80.40;15.17;;;16.50;99.90;;;;;;5045454;28;20728;-83
2022/09/12 00:21:27;;;;;;;74.63;15.03;;;16.40;99.90;;;;;;5045347;28;20403;-83
2022/09/12 00:23:53;;;;;;;72.53;14.50;;;16.40;99.90;;;;;;5045507;28;20411;-83
2022/09/12 00:26:20;;;;;;;73.00;14.40;;;16.40;99.90;;;;;;5026786;28;20415;-83
2022/09/12 00:28:46;;;;;;;74.80;15.87;;;16.40;99.90;;;;;;5045363;28;20425;-83
2022/09/12 00:31:16;;;;;;;74.37;15.03;;;16.40;99.90;;;;;;5042874;28;20418;-83
2022/09/12 00:33:42;;;;;;;73.97;14.43;;;16.30;99.90;;;;;;5044074;28;20392;-83
2022/09/12 00:36:17;;;;;;;75.77;17.23;;;16.30;99.90;;;;;;5042906;28;20417;-83
2022/09/12 00:38:44;;;;;;;74.13;15.60;;;16.30;99.90;;;;;;5043217;28;20198;-83
2022/09/12 00:41:17;;;;;;;78.50;15.90;;;16.30;99.90;;;;;;5044710;28;20412;-83
2022/09/12 00:43:48;;;;;;;74.63;17.67;;;16.30;99.90;;;;;;5045191;28;20476;-83
2022/09/12 00:46:17;;;;;;;75.60;15.27;;;16.30;99.90;;;;;;5045217;28;20380;-83
2022/09/12 00:49:07;;;;;;;75.47;16.37;;;16.20;99.90;;;;;;5044666;28;20430;-83
2022/09/12 00:51:36;;;;;;;73.97;16.50;;;16.20;99.90;;;;;;5030780;28;20422;-83
2022/09/12 00:54:09;;;;;;;73.37;15.27;;;16.10;99.90;;;;;;5044691;28;20460;-83
2022/09/12 00:56:40;;;;;;;72.70;15.60;;;16.10;99.90;;;;;;5043464;28;20414;-83
2022/09/12 00:59:23;;;;;;;73.17;14.60;;;16.10;99.90;;;;;;5027005;28;20497;-83
2022/09/12 01:01:50;;;;;;;75.07;14.43;;;16.10;99.90;;;;;;5042689;28;20465;-83
2022/09/12 01:04:18;;;;;;;73.30;14.97;;;16.00;99.90;;;;;;5043400;28;20401;-83
2022/09/12 01:06:45;;;;;;;73.90;17.00;;;16.10;99.90;;;;;;5043238;28;20451;-83
2022/09/12 01:09:20;;;;;;;77.80;15.27;;;16.00;99.90;;;;;;5042945;28;20420;-83
2022/09/12 01:11:47;;;;;;;74.80;16.83;;;16.00;99.90;;;;;;5025904;28;20417;-83
2022/09/12 01:14:15;;;;;;;80.57;17.27;;;16.00;99.90;;;;;;5043725;28;20491;-83
2022/09/12 01:16:41;;;;;;;80.10;16.13;;;15.90;99.90;;;;;;5044724;28;20410;-84
2022/09/12 01:19:11;;;;;;;76.00;14.87;;;15.90;99.90;;;;;;5043989;28;20412;-83
2022/09/12 01:21:58;;;;;;;77.37;14.97;;;15.90;99.90;;;;;;5042688;28;20516;-83
2022/09/12 01:24:36;;;;;;;76.90;17.70;;;15.90;99.90;;;;;;5043028;28;20432;-83
2022/09/12 01:27:22;;;;;;;81.17;18.20;;;15.90;99.90;;;;;;5044825;28;20433;-83
2022/09/12 01:30:14;;;;;;;78.60;16.33;;;15.90;99.90;;;;;;5045097;28;20405;-83
2022/09/12 01:32:57;;;;;;;81.30;18.73;;;15.80;99.90;;;;;;5024123;28;20417;-83
2022/09/12 01:35:55;;;;;;;78.90;18.87;;;15.90;99.90;;;;;;5045352;28;20745;-83
2022/09/12 01:38:31;;;;;;;79.10;19.73;;;15.80;99.90;;;;;;5044496;28;20420;-83
2022/09/12 01:41:03;;;;;;;78.50;16.20;;;15.90;99.90;;;;;;5044671;28;20474;-84
2022/09/12 01:43:50;;;;;;;86.27;19.57;;;15.90;99.90;;;;;;5044947;28;20461;-83
2022/09/12 01:46:18;;;;;;;80.40;21.07;;;15.90;99.90;;;;;;5044645;28;20908;-83
2022/09/12 01:48:56;;;;;;;79.60;17.87;;;15.80;99.90;;;;;;5023864;28;20426;-83
2022/09/12 01:51:26;;;;;;;83.10;22.30;;;15.80;99.90;;;;;;5044921;28;20451;-83
2022/09/12 01:54:00;;;;;;;80.17;19.50;;;15.80;99.90;;;;;;5029746;28;20441;-83
2022/09/12 01:56:29;;;;;;;83.23;20.10;;;15.80;99.90;;;;;;5030701;28;20406;-83
2022/09/12 01:59:07;;;;;;;78.60;19.80;;;15.80;99.90;;;;;;5046583;28;20406;-83
2022/09/12 02:01:40;;;;;;;80.37;21.40;;;15.80;99.90;;;;;;5048408;28;20390;-83
2022/09/12 02:04:14;;;;;;;81.07;20.10;;;15.70;99.90;;;;;;5046778;28;20380;-83
2022/09/12 02:07:12;;;;;;;81.00;19.23;;;15.80;99.90;;;;;;5047793;28;20426;-83
2022/09/12 02:09:53;;;;;;;83.07;22.57;;;15.70;99.90;;;;;;5043453;28;20404;-83
2022/09/12 02:12:23;;;;;;;80.77;20.17;;;15.70;99.90;;;;;;5048214;28;20390;-83
2022/09/12 02:14:54;;;;;;;82.47;21.80;;;15.70;99.90;;;;;;5046930;28;20809;-83
2022/09/12 02:17:23;;;;;;;80.00;20.30;;;15.70;99.90;;;;;;5027340;28;20455;-83
2022/09/12 02:19:55;;;;;;;83.90;24.27;;;15.70;99.90;;;;;;5045018;28;20412;-83
2022/09/12 02:22:24;;;;;;;81.10;22.77;;;15.70;99.90;;;;;;5029660;28;20455;-83
2022/09/12 02:24:56;;;;;;;81.50;21.60;;;15.60;99.90;;;;;;5045729;28;20432;-83
2022/09/12 02:27:36;;;;;;;85.70;24.63;;;15.70;99.90;;;;;;5047422;28;20421;-83
2022/09/12 02:30:04;;;;;;;84.30;24.97;;;15.60;99.90;;;;;;5048431;28;20378;-83
2022/09/12 02:32:37;;;;;;;86.20;23.60;;;15.60;99.90;;;;;;5045731;28;20409;-83
2022/09/12 02:35:17;;;;;;;87.47;21.90;;;15.60;99.90;;;;;;5028149;28;20412;-83
2022/09/12 02:38:15;;;;;;;87.67;24.70;;;15.60;99.90;;;;;;5046123;28;20428;-83
2022/09/12 02:40:41;;;;;;;81.93;21.90;;;15.60;99.90;;;;;;5044471;28;20412;-83
2022/09/12 02:43:06;;;;;;;86.67;27.90;;;15.60;99.90;;;;;;5045662;28;20487;-83
2022/09/12 02:45:34;;;;;;;89.20;28.67;;;15.50;99.90;;;;;;5045726;28;20166;-83
2022/09/12 02:48:41;;;;;;;84.73;23.87;;;15.50;99.90;;;;;;5045708;28;20213;-83
2022/09/12 02:51:07;;;;;;;86.20;26.60;;;15.50;99.90;;;;;;5043209;28;20420;-83
2022/09/12 02:53:34;;;;;;;89.37;28.50;;;15.50;99.90;;;;;;5046649;28;20416;-83
2022/09/12 02:56:00;;;;;;;85.20;28.10;;;15.50;99.90;;;;;;5046254;28;20410;-83
2022/09/12 02:58:30;;;;;;;85.67;29.73;;;15.40;99.90;;;;;;5027128;28;20463;-83
2022/09/12 03:01:22;;;;;;;88.10;29.23;;;15.40;99.90;;;;;;5046849;28;20404;-83
2022/09/12 03:03:58;;;;;;;84.27;26.80;;;15.50;99.90;;;;;;4997401;28;20515;-83
2022/09/12 03:06:34;;;;;;;87.83;28.67;;;15.40;99.90;;;;;;5027146;28;20405;-83
2022/09/12 03:09:10;;;;;;;87.73;28.40;;;15.40;99.90;;;;;;5044560;28;20439;-83
2022/09/12 03:11:36;;;;;;;85.43;32.00;;;15.40;99.90;;;;;;5044636;28;20463;-83
2022/09/12 03:14:43;;;;;;;84.97;29.97;;;15.40;99.90;;;;;;5026906;28;20459;-83
2022/09/12 03:17:13;;;;;;;84.80;29.90;;;15.30;99.90;;;;;;5044608;28;20224;-83
2022/09/12 03:20:09;;;;;;;85.77;31.60;;;15.30;99.90;;;;;;5028998;28;20399;-83
2022/09/12 03:22:50;;;;;;;88.90;33.33;;;15.30;99.90;;;;;;5046814;28;20432;-83
2022/09/12 03:25:23;;;;;;;86.37;32.20;;;15.30;99.90;;;;;;5044939;28;20403;-84
2022/09/12 03:28:07;;;;;;;86.73;35.70;;;15.20;99.90;;;;;;5045124;28;20447;-83
2022/09/12 03:30:44;;;;;;;87.30;39.47;;;15.20;99.90;;;;;;5047397;28;20813;-83
2022/09/12 03:33:12;;;;;;;90.97;40.57;;;15.20;99.90;;;;;;5044284;28;20447;-83
2022/09/12 03:35:38;;;;;;;90.47;39.87;;;15.10;99.90;;;;;;5046989;28;20417;-83
2022/09/12 03:38:04;;;;;;;87.10;37.70;;;15.10;99.90;;;;;;5046798;28;20427;-83
2022/09/12 03:40:29;;;;;;;86.07;41.97;;;15.10;99.90;;;;;;5027305;28;20419;-83
2022/09/12 03:42:55;;;;;;;87.03;38.57;;;15.20;99.90;;;;;;5046441;28;20456;-84
2022/09/12 03:45:21;;;;;;;86.57;34.07;;;15.20;99.90;;;;;;5028792;28;20170;-83
2022/09/12 03:47:46;;;;;;;88.87;37.67;;;15.20;99.90;;;;;;5045764;28;20186;-83
2022/09/12 03:50:12;;;;;;;87.43;31.13;;;15.20;99.90;;;;;;5044993;28;20170;-84
2022/09/12 03:52:38;;;;;;;88.30;33.70;;;15.10;99.90;;;;;;5044391;28;20173;-83
2022/09/12 03:55:04;;;;;;;87.30;34.20;;;15.10;99.90;;;;;;5026442;28;20178;-84
2022/09/12 03:57:30;;;;;;;86.63;35.40;;;15.10;99.90;;;;;;5044374;28;20191;-84
2022/09/12 03:59:55;;;;;;;87.47;34.13;;;15.00;99.90;;;;;;5027271;28;20418;-83
2022/09/12 04:02:21;;;;;;;85.73;33.53;;;15.10;99.90;;;;;;5043905;28;20559;-84
2022/09/12 04:04:47;;;;;;;84.33;33.57;;;15.10;99.90;;;;;;5044769;28;20167;-84
2022/09/12 04:07:14;;;;;;;86.40;34.03;;;15.10;99.90;;;;;;5044310;28;20206;-84
2022/09/12 04:09:40;;;;;;;84.63;34.97;;;15.00;99.90;;;;;;5043775;28;20400;-83
2022/09/12 04:12:06;;;;;;;90.07;40.77;;;15.00;99.90;;;;;;5027997;28;20961;-83
2022/09/12 04:14:33;;;;;;;87.20;35.57;;;15.00;99.90;;;;;;5045114;28;20168;-83
2022/09/12 04:16:59;;;;;;;87.57;31.67;;;15.00;99.90;;;;;;5044796;28;20460;-83
2022/09/12 04:19:26;;;;;;;89.87;36.23;;;15.00;99.90;;;;;;5044852;28;20444;-83
2022/09/12 04:21:51;;;;;;;87.23;34.07;;;14.90;99.90;;;;;;5043496;28;20448;-84
2022/09/12 04:24:17;;;;;;;86.17;37.37;;;14.90;99.90;;;;;;5044149;28;20407;-83
2022/09/12 04:26:43;;;;;;;89.37;39.97;;;14.90;99.90;;;;;;5043311;28;20408;-84
2022/09/12 04:29:11;;;;;;;86.07;37.37;;;14.90;99.90;;;;;;5043922;28;20174;-83
2022/09/12 04:31:37;;;;;;;89.83;36.90;;;14.90;99.90;;;;;;5044202;28;20406;-83
2022/09/12 04:34:04;;;;;;;91.67;43.53;;;14.80;99.90;;;;;;5043709;28;20410;-84
2022/09/12 04:36:32;;;;;;;89.47;39.23;;;14.80;99.90;;;;;;5044642;28;20426;-84
2022/09/12 04:38:59;;;;;;;91.63;41.10;;;14.60;99.90;;;;;;5046128;28;20396;-83
2022/09/12 04:43:57;;;;;;;97.90;47.07;;;14.60;99.90;;;;;;5114891;22;20538;-85
2022/09/12 04:46:24;;;;;;;97.50;48.47;;;14.60;99.90;;;;;;5043127;28;20400;-85
2022/09/12 04:48:50;;;;;;;91.30;45.87;;;14.50;99.90;;;;;;5043093;28;20416;-85
2022/09/12 04:51:21;;;;;;;91.80;53.70;;;14.50;99.90;;;;;;5043097;28;20407;-85
2022/09/12 04:53:49;;;;;;;99.10;59.03;;;14.60;99.90;;;;;;5044781;28;20395;-85
2022/09/12 04:56:15;;;;;;;93.50;51.30;;;14.60;99.90;;;;;;5024889;28;20408;-85
2022/09/12 04:58:41;;;;;;;90.10;38.57;;;14.70;99.90;;;;;;5045039;28;20489;-85
2022/09/12 05:01:09;;;;;;;90.17;42.07;;;14.70;99.90;;;;;;5042671;28;20443;-85
2022/09/12 05:03:37;;;;;;;89.93;43.70;;;14.80;99.90;;;;;;5042195;28;20548;-85
2022/09/12 05:06:08;;;;;;;92.27;43.73;;;14.80;99.90;;;;;;5043763;28;20408;-86
2022/09/12 05:08:35;;;;;;;90.40;42.73;;;14.80;99.90;;;;;;5043557;28;20448;-86
2022/09/12 05:11:06;;;;;;;90.33;40.73;;;14.70;99.90;;;;;;5043234;28;20464;-86
2022/09/12 05:13:33;;;;;;;88.83;42.57;;;14.70;99.90;;;;;;5044550;28;20428;-86
2022/09/12 05:16:02;;;;;;;91.70;43.10;;;14.70;99.90;;;;;;5044811;28;20401;-86
2022/09/12 05:18:32;;;;;;;91.70;37.67;;;14.70;99.90;;;;;;5026407;28;20490;-86
2022/09/12 05:20:59;;;;;;;88.37;40.87;;;14.80;99.90;;;;;;5044576;28;20408;-85
2022/09/12 05:23:26;;;;;;;89.30;45.23;;;14.80;99.90;;;;;;5043087;28;20527;-83
2022/09/12 05:25:53;;;;;;;88.70;44.50;;;14.80;99.90;;;;;;5040967;28;20416;-85
2022/09/12 05:28:21;;;;;;;90.17;45.97;;;14.80;99.90;;;;;;5025684;28;20810;-85
2022/09/12 05:30:47;;;;;;;90.00;42.67;;;14.80;99.90;;;;;;5041517;28;20404;-85
2022/09/12 05:33:14;;;;;;;91.93;46.00;;;14.80;99.90;;;;;;5023777;28;20420;-85
2022/09/12 05:35:40;;;;;;;88.47;40.37;;;14.80;99.90;;;;;;5024335;28;20412;-85
2022/09/12 05:38:08;;;;;;;95.20;57.43;;;14.80;99.90;;;;;;5039577;28;20439;-86
2022/09/12 05:40:34;;;;;;;99.70;54.97;;;14.90;99.90;;;;;;5039227;28;20417;-86
2022/09/12 05:43:00;;;;;;;93.37;49.57;;;14.90;99.90;;;;;;5035613;28;20543;-84
2022/09/12 05:45:25;;;;;;;93.30;50.50;;;14.90;99.90;;;;;;5036207;28;20410;-84
2022/09/12 05:47:53;;;;;;;98.93;65.40;;;14.90;99.90;;;;;;5036149;28;20247;-84
2022/09/12 05:50:19;;;;;;;99.73;75.37;;;15.00;99.90;;;;;;5018062;28;20625;-84
2022/09/12 05:52:45;;;;;;;98.63;67.10;;;15.00;99.90;;;;;;5018452;28;20520;-84
2022/09/12 05:55:11;;;;;;;99.60;75.17;;;15.00;99.90;;;;;;5018400;28;20444;-84
2022/09/12 05:57:37;;;;;;;98.83;78.13;;;15.00;99.90;;;;;;5017954;28;20448;-84
2022/09/12 06:00:04;;;;;;;104.83;82.00;;;15.10;99.90;;;;;;5036038;28;20413;-84
2022/09/12 06:02:30;;;;;;;102.47;80.80;;;15.10;99.90;;;;;;5020616;28;20729;-85
2022/09/12 06:04:56;;;;;;;105.53;91.40;;;15.10;99.90;;;;;;5022420;28;20447;-86
2022/09/12 06:07:22;;;;;;;114.83;101.73;;;15.20;99.90;;;;;;5039291;28;20187;-85
2022/09/12 06:09:47;;;;;;;111.57;99.57;;;15.20;99.90;;;;;;5039280;28;20419;-85
2022/09/12 06:12:13;;;;;;;123.77;111.30;;;15.20;99.90;;;;;;5038371;28;20177;-85
2022/09/12 06:14:39;;;;;;;127.80;115.07;;;15.20;99.90;;;;;;5038865;28;20348;-85
2022/09/12 06:17:04;;;;;;;140.97;127.63;;;15.20;99.90;;;;;;5021286;28;20198;-85
2022/09/12 06:19:30;;;;;;;134.80;121.70;;;15.20;99.90;;;;;;5037766;28;20522;-85
2022/09/12 06:21:56;;;;;;;134.20;121.43;;;15.00;99.90;;;;;;5019853;28;20210;-85
2022/09/12 06:24:21;;;;;;;123.67;111.07;;;15.00;99.90;;;;;;5038589;28;20162;-85
2022/09/12 06:26:48;;;;;;;117.53;105.20;;;15.20;99.90;;;;;;5036959;28;20175;-84
2022/09/12 06:29:15;;;;;;;123.60;110.77;;;15.10;99.90;;;;;;5037084;28;20162;-84
2022/09/12 06:31:42;;;;;;;130.37;117.50;;;15.20;99.90;;;;;;5039429;28;20802;-86
2022/09/12 06:34:10;;;;;;;135.63;122.40;;;15.20;99.90;;;;;;5038802;28;20445;-86
2022/09/12 06:36:45;;;;;;;135.60;122.50;;;15.30;99.90;;;;;;5040414;28;20408;-86
2022/09/12 06:39:13;;;;;;;129.43;116.83;;;15.40;99.90;;;;;;5040189;28;20373;-85
2022/09/12 06:41:39;;;;;;;144.73;131.20;;;15.50;99.90;;;;;;5044108;28;20770;-86
2022/09/12 06:44:05;;;;;;;142.73;129.27;;;15.60;99.90;;;;;;5043217;28;20414;-86
2022/09/12 06:46:32;;;;;;;147.33;133.90;;;15.70;99.90;;;;;;5025400;28;20194;-86
2022/09/12 06:49:00;;;;;;;155.90;142.23;;;15.70;99.90;;;;;;5043684;28;20457;-86
2022/09/12 06:51:31;;;;;;;141.40;127.90;;;15.70;99.90;;;;;;5025558;28;20412;-86
2022/09/12 06:53:57;;;;;;;153.13;139.27;;;15.80;99.90;;;;;;5043628;28;20393;-86
2022/09/12 06:56:25;;;;;;;148.00;134.60;;;15.80;99.90;;;;;;5041661;28;20405;-86
2022/09/12 06:58:51;;;;;;;162.70;148.77;;;15.90;99.90;;;;;;5023061;28;20192;-84
2022/09/12 07:01:22;;;;;;;173.57;159.33;;;15.90;99.90;;;;;;5039235;28;20928;-84
2022/09/12 07:03:51;;;;;;;146.37;132.67;;;15.80;99.90;;;;;;5039257;28;20461;-85
2022/09/12 07:06:19;;;;;;;136.53;123.37;;;15.80;99.90;;;;;;5038976;28;20546;-86
2022/09/12 07:08:45;;;;;;;146.47;133.20;;;15.80;99.90;;;;;;5040778;28;20434;-85
2022/09/12 07:11:21;;;;;;;151.27;137.30;;;15.80;99.90;;;;;;5044457;28;20475;-85
2022/09/12 07:13:49;;;;;;;145.87;132.70;;;16.00;99.90;;;;;;5044244;28;20405;-85
2022/09/12 07:16:16;;;;;;;173.00;158.27;;;16.00;99.90;;;;;;5043875;28;20413;-85
2022/09/12 07:18:42;;;;;;;147.17;133.00;;;16.10;99.90;;;;;;5025706;28;20445;-85
2022/09/12 07:21:13;;;;;;;146.27;132.47;;;16.10;99.90;;;;;;5025647;28;20844;-85
2022/09/12 07:23:40;;;;;;;132.27;119.43;;;16.10;99.90;;;;;;5025410;28;20466;-85
2022/09/12 07:26:08;;;;;;;145.67;132.27;;;16.20;99.90;;;;;;5041558;28;20821;-84
2022/09/12 07:28:34;;;;;;;126.47;113.83;;;16.20;99.90;;;;;;5022438;28;20428;-84
2022/09/12 07:31:18;;;;;;;130.67;117.73;;;16.20;99.90;;;;;;5022867;28;20422;-84
2022/09/12 07:33:44;;;;;;;124.90;112.10;;;16.30;99.90;;;;;;5021860;28;20423;-84
2022/09/12 07:36:12;;;;;;;140.13;126.77;;;16.30;99.90;;;;;;5040002;28;20409;-84
2022/09/12 07:38:38;;;;;;;133.00;119.97;;;16.30;99.90;;;;;;5041051;28;20250;-84
2022/09/12 07:41:22;;;;;;;127.63;114.87;;;16.40;99.90;;;;;;5039773;28;20505;-84
2022/09/12 07:43:50;;;;;;;128.47;115.57;;;16.40;99.90;;;;;;5039200;28;20561;-86
2022/09/12 07:46:16;;;;;;;118.80;106.17;;;16.50;99.90;;;;;;5040923;28;20438;-84
2022/09/12 07:48:43;;;;;;;107.17;93.33;;;16.50;99.90;;;;;;5040593;28;20429;-85
2022/09/12 07:51:10;;;;;;;102.33;82.33;;;16.60;99.90;;;;;;5023433;28;20628;-85
2022/09/12 07:53:39;;;;;;;114.83;101.03;;;16.70;99.90;;;;;;5041017;28;20407;-85
2022/09/12 07:56:07;;;;;;;105.50;81.27;;;16.70;99.90;;;;;;5023336;28;20908;-85
2022/09/12 07:58:35;;;;;;;115.00;98.93;;;16.80;99.90;;;;;;5041675;28;20431;-85
2022/09/12 08:01:06;;;;;;;106.37;80.57;;;16.90;99.90;;;;;;5040983;28;20408;-85
2022/09/12 08:03:31;;;;;;;101.50;75.70;;;16.90;99.90;;;;;;5041801;28;20442;-85
2022/09/12 08:06:12;;;;;;;104.20;80.97;;;17.00;99.90;;;;;;5023560;28;20761;-85
2022/09/12 08:08:39;;;;;;;103.03;69.63;;;17.00;99.90;;;;;;5042555;28;20544;-85
2022/09/12 08:11:08;;;;;;;103.23;75.97;;;17.10;99.90;;;;;;5040880;28;20430;-84
2022/09/12 08:13:36;;;;;;;103.00;59.50;;;17.20;99.90;;;;;;5037690;28;20851;-84
2022/09/12 08:16:05;;;;;;;98.07;64.77;;;17.30;99.90;;;;;;5019995;28;20404;-84
2022/09/12 08:18:31;;;;;;;95.03;51.17;;;17.40;99.90;;;;;;5039594;28;20428;-84
2022/09/12 08:21:02;;;;;;;93.40;46.30;;;17.50;99.90;;;;;;5041577;28;20506;-84
2022/09/12 08:23:28;;;;;;;93.93;38.17;;;17.60;99.90;;;;;;5040585;28;20436;-84
2022/09/12 08:25:59;;;;;;;87.47;34.17;;;17.70;99.90;;;;;;5022974;28;20427;-84
2022/09/12 08:28:25;;;;;;;97.83;52.47;;;17.70;99.90;;;;;;5023007;28;20475;-84
2022/09/12 08:30:52;;;;;;;93.03;40.97;;;17.70;99.90;;;;;;5039350;28;20471;-84
2022/09/12 08:33:18;;;;;;;94.30;36.17;;;17.70;99.90;;;;;;5039163;28;20416;-84
2022/09/12 08:35:44;;;;;;;88.20;33.20;;;17.90;99.90;;;;;;5039428;28;20422;-84
2022/09/12 08:38:10;;;;;;;90.60;36.27;;;17.90;99.90;;;;;;5020911;28;20466;-84
2022/09/12 08:41:01;;;;;;;94.63;34.27;;;17.90;99.90;;;;;;5021547;28;20177;-84
2022/09/12 08:43:43;;;;;;;90.90;34.53;;;17.90;99.90;;;;;;4978735;28;1216766;-83
2022/09/12 08:46:16;;;;;;;94.53;33.03;;;17.80;99.90;;;;;;5039320;28;20487;-83
2022/09/12 08:48:45;;;;;;;86.77;30.80;;;17.80;99.90;;;;;;5036878;28;20424;-83
2022/09/12 08:51:15;;;;;;;92.63;41.70;;;17.80;99.90;;;;;;5037804;28;20408;-83
2022/09/12 08:53:42;;;;;;;97.30;39.80;;;17.70;99.90;;;;;;5040297;28;20400;-83
2022/09/12 08:56:10;;;;;;;88.27;32.00;;;17.70;99.90;;;;;;5039791;28;20523;-84
2022/09/12 08:58:42;;;;;;;93.67;37.90;;;17.90;99.90;;;;;;5022613;28;20440;-84
2022/09/12 09:01:40;;;;;;;92.60;36.57;;;18.00;99.90;;;;;;5038377;28;20899;-84
2022/09/12 09:04:26;;;;;;;89.47;32.57;;;18.10;99.90;;;;;;5038859;28;20392;-84
2022/09/12 09:07:10;;;;;;;93.07;39.07;;;18.20;99.90;;;;;;5039038;28;20404;-84
2022/09/12 09:09:51;;;;;;;90.63;34.83;;;18.20;99.90;;;;;;5022670;28;20423;-83
2022/09/12 09:12:38;;;;;;;90.27;35.67;;;18.30;99.90;;;;;;5021452;28;20401;-83
2022/09/12 09:15:32;;;;;;;87.00;30.87;;;18.40;99.90;;;;;;5039922;28;20491;-83
2022/09/12 09:18:03;;;;;;;84.13;28.70;;;18.60;99.90;;;;;;5038644;28;20422;-83
2022/09/12 09:20:46;;;;;;;91.13;31.80;;;18.70;99.90;;;;;;5038290;28;20381;-84
2022/09/12 09:23:32;;;;;;;86.47;29.40;;;18.80;99.90;;;;;;5040260;28;20439;-84
2022/09/12 09:26:27;;;;;;;83.87;26.87;;;19.00;99.90;;;;;;5039158;28;20396;-83
2022/09/12 09:29:01;;;;;;;88.80;36.53;;;19.10;99.90;;;;;;5039833;28;20420;-84
2022/09/12 09:31:32;;;;;;;83.53;30.83;;;19.10;99.90;;;;;;5040284;28;20872;-84
2022/09/12 09:33:59;;;;;;;89.50;33.33;;;19.20;99.90;;;;;;5039270;28;20387;-83
2022/09/12 09:36:48;;;;;;;85.20;35.73;;;19.20;99.90;;;;;;5040025;28;20407;-84
2022/09/12 09:39:25;;;;;;;86.93;30.57;;;19.30;99.90;;;;;;5021678;28;20388;-83
2022/09/12 09:42:10;;;;;;;84.40;30.73;;;19.40;99.90;;;;;;5022731;28;20450;-84
2022/09/12 09:44:36;;;;;;;84.53;29.73;;;19.60;99.90;;;;;;5040708;28;20414;-85
2022/09/12 09:47:02;;;;;;;85.53;31.60;;;19.70;99.90;;;;;;5021530;28;20507;-83
2022/09/12 09:49:30;;;;;;;79.70;26.60;;;19.90;99.90;;;;;;5040120;28;20403;-83
2022/09/12 09:51:59;;;;;;;77.53;16.20;;;20.00;99.90;;;;;;5038819;28;20165;-82
2022/09/12 09:54:37;;;;;;;78.57;13.70;;;20.10;99.90;;;;;;5018421;28;20414;-84
2022/09/12 09:57:04;;;;;;;78.30;14.60;;;20.20;99.90;;;;;;5022117;28;20432;-83
2022/09/12 09:59:33;;;;;;;80.33;14.33;;;20.30;99.90;;;;;;5021765;28;20441;-84
2022/09/12 10:02:20;;;;;;;73.87;11.87;;;20.50;99.90;;;;;;5039644;28;20436;-83
2022/09/12 10:04:57;;;;;;;71.60;9.10;;;20.70;99.90;;;;;;5039045;28;20420;-82
2022/09/12 10:07:24;;;;;;;71.67;9.20;;;20.90;99.90;;;;;;5038923;28;20431;-83
2022/09/12 10:10:16;;;;;;;74.47;9.60;;;21.10;99.90;;;;;;5023597;28;20484;-83
2022/09/12 10:12:42;;;;;;;74.20;9.60;;;21.20;99.90;;;;;;5040701;28;20393;-83
2022/09/12 10:15:21;;;;;;;74.57;8.90;;;21.30;99.60;;;;;;5025745;28;20409;-83
2022/09/12 10:17:49;;;;;;;75.87;9.87;;;21.60;99.90;;;;;;5042521;28;20413;-83
2022/09/12 10:20:39;;;;;;;72.07;8.37;;;21.80;95.50;;;;;;5042131;28;20459;-83
2022/09/12 10:23:29;;;;;;;72.20;8.63;;;21.90;92.10;;;;;;5042189;28;20497;-82
2022/09/12 10:25:59;;;;;;;73.10;8.13;;;21.90;93.20;;;;;;5042219;28;20384;-84
2022/09/12 10:28:36;;;;;;;70.60;8.33;;;21.90;80.90;;;;;;5042459;28;20417;-83
2022/09/12 10:31:03;;;;;;;72.77;8.37;;;22.10;85.60;;;;;;5024173;28;20400;-82
2022/09/12 10:33:29;;;;;;;74.10;8.20;;;22.30;79.30;;;;;;5042248;28;20820;-82
2022/09/12 10:35:55;;;;;;;71.10;7.93;;;22.40;66.00;;;;;;5023824;28;20462;-83
2022/09/12 10:38:27;;;;;;;69.10;7.30;;;22.40;61.30;;;;;;5041013;28;20420;-83
2022/09/12 10:41:20;;;;;;;76.40;7.70;;;22.40;53.50;;;;;;5041915;28;20914;-84
2022/09/12 10:43:46;;;;;;;72.23;6.83;;;22.50;60.00;;;;;;5112263;22;20502;-83
2022/09/12 10:46:15;;;;;;;72.10;7.03;;;22.60;60.50;;;;;;5050551;28;20400;-82
2022/09/12 10:48:45;;;;;;;72.27;7.93;;;22.80;62.90;;;;;;5031287;28;20428;-82
2022/09/12 10:51:22;;;;;;;67.87;5.70;;;23.00;43.50;;;;;;5049593;28;20400;-82
2022/09/12 10:53:50;;;;;;;70.57;7.07;;;23.00;47.50;;;;;;5049779;28;20463;-82
2022/09/12 10:56:22;;;;;;;68.47;8.37;;;23.40;40.50;;;;;;5049070;28;20395;-82
2022/09/12 10:58:52;;;;;;;70.20;9.30;;;23.50;27.30;;;;;;5049192;28;20405;-82
2022/09/12 11:01:24;;;;;;;70.57;9.63;;;23.50;11.10;;;;;;5048994;28;20426;-82
2022/09/12 11:03:58;;;;;;;71.90;11.93;;;23.50;12.20;;;;;;5031646;28;20455;-82
2022/09/12 11:06:37;;;;;;;69.50;8.73;;;23.50;19.20;;;;;;5046122;28;20397;-82
2022/09/12 11:09:32;;;;;;;71.40;10.17;;;23.60;17.50;;;;;;5048799;28;20727;-81
2022/09/12 11:12:06;;;;;;;70.17;9.90;;;23.80;14.30;;;;;;5047085;28;20507;-82
2022/09/12 11:14:34;;;;;;;69.93;9.33;;;23.90;5.20;;;;;;5049220;28;20465;-82
2022/09/12 11:17:12;;;;;;;73.50;8.77;;;24.00;6.90;;;;;;5048463;28;20923;-82
2022/09/12 11:20:10;;;;;;;69.93;6.53;;;24.00;3.90;;;;;;5030994;28;20419;-82
2022/09/12 11:23:03;;;;;;;69.53;7.00;;;24.10;1.00;;;;;;4997194;28;20515;-82
2022/09/12 11:26:19;;;;;;;67.80;4.63;;;24.20;1.00;;;;;;5010085;28;20424;-82
2022/09/12 11:29:21;;;;;;;70.10;5.80;;;24.20;1.00;;;;;;5007401;28;20436;-82
2022/09/12 11:32:07;;;;;;;69.13;4.73;;;24.20;1.00;;;;;;5048686;28;20384;-81
2022/09/12 11:35:14;;;;;;;68.77;5.00;;;24.50;1.00;;;;;;5047865;28;20780;-82
2022/09/12 11:38:04;;;;;;;68.40;4.53;;;24.70;1.00;;;;;;5014056;28;20440;-82
2022/09/12 11:40:38;;;;;;;68.10;4.77;;;24.60;1.00;;;;;;5029249;28;20401;-82
2022/09/12 11:43:25;;;;;;;67.67;4.50;;;24.50;1.00;;;;;;5045847;28;20459;-82
2022/09/12 11:45:51;;;;;;;69.10;4.80;;;24.70;1.00;;;;;;5046938;28;20724;-82
2022/09/12 11:48:45;;;;;;;68.77;4.80;;;24.90;1.00;;;;;;5047712;28;20427;-82
2022/09/12 11:51:18;;;;;;;68.20;4.90;;;25.00;1.00;;;;;;5046849;28;20390;-82
2022/09/12 11:53:49;;;;;;;67.77;4.60;;;25.00;1.00;;;;;;5048133;28;20799;-82
2022/09/12 11:56:17;;;;;;;68.63;5.03;;;25.10;1.00;;;;;;5047977;28;20412;-82
2022/09/12 11:58:51;;;;;;;68.33;5.10;;;25.30;1.00;;;;;;5048423;28;20440;-82
2022/09/12 12:01:26;;;;;;;67.70;5.50;;;25.50;1.00;;;;;;5048185;28;20389;-82
2022/09/12 12:03:54;;;;;;;68.90;5.20;;;25.40;1.00;;;;;;5029506;28;20456;-82
2022/09/12 12:06:31;;;;;;;68.27;6.40;;;25.40;1.00;;;;;;5043839;28;20406;-81
2022/09/12 12:08:57;;;;;;;68.60;5.50;;;25.60;1.00;;;;;;5042415;28;20388;-81
2022/09/12 12:11:40;;;;;;;68.93;5.20;;;25.50;1.00;;;;;;5041707;28;20408;-82
2022/09/12 12:14:18;;;;;;;69.63;5.80;;;25.60;1.00;;;;;;5023318;28;20446;-83
2022/09/12 12:16:45;;;;;;;67.60;4.80;;;25.60;1.00;;;;;;5039201;28;20736;-82
2022/09/12 12:19:13;;;;;;;67.80;4.40;;;25.60;1.00;;;;;;5041671;28;20417;-82
2022/09/12 12:21:47;;;;;;;67.93;4.80;;;25.20;1.00;;;;;;5040452;28;20404;-82
2022/09/12 12:24:22;;;;;;;69.20;5.70;;;25.00;1.00;;;;;;5024024;28;20428;-83
2022/09/12 12:27:01;;;;;;;68.50;5.57;;;25.30;1.00;;;;;;5042294;28;20392;-82
2022/09/12 12:29:42;;;;;;;69.37;4.23;;;25.50;1.00;;;;;;5042697;28;20428;-83
2022/09/12 12:32:08;;;;;;;67.77;4.23;;;25.60;1.00;;;;;;5022515;28;20406;-82
2022/09/12 12:34:36;;;;;;;68.10;4.00;;;25.60;1.00;;;;;;5040568;28;20498;-81
2022/09/12 12:37:20;;;;;;;68.77;4.60;;;25.90;1.00;;;;;;5042064;28;20218;-81
2022/09/12 12:39:52;;;;;;;68.40;4.80;;;25.90;1.00;;;;;;5039227;28;20405;-82
2022/09/12 12:45:03;;;;;;;69.37;4.40;;;26.00;1.00;;;;;;5041719;28;20399;-82
2022/09/12 12:47:32;;;;;;;67.80;4.60;;;25.90;1.00;;;;;;5045585;28;20446;-82
2022/09/12 12:50:01;;;;;;;67.63;4.30;;;26.00;1.00;;;;;;5027492;28;20480;-82
2022/09/12 12:52:31;;;;;;;68.47;4.70;;;26.10;1.00;;;;;;5027117;28;20908;-82
2022/09/12 12:54:59;;;;;;;68.37;4.43;;;26.20;1.00;;;;;;5045118;28;20442;-82
2022/09/12 12:57:49;;;;;;;67.90;4.10;;;26.00;1.00;;;;;;5043547;28;20424;-82
2022/09/12 13:00:24;;;;;;;70.23;5.10;;;26.10;1.00;;;;;;5042784;28;20883;-82